Time;durP1;ratioP1;P1;durP2;ratioP2;P2;SDS_P1;SDS_P2;PMS_P1;PMS_P2;Temp;Humidity;BMP_temperature;BMP_pressure;BME280_temperature;BME280_humidity;BME280_pressure;Samples;Min_cycle;Max_cycle;Signal;HPM_P1;HPM_P2
2022/11/12 00:01:55;;;;;;;17.88;16.08;;;;;;;9.82;72.36;96271.31;5139157;27;20202;-71
2022/11/12 00:04:22;;;;;;;17.40;15.55;;;;;;;9.85;72.04;96248.63;5139232;27;20206;-70
2022/11/12 00:06:48;;;;;;;18.25;16.35;;;;;;;9.81;72.13;96253.16;5138476;27;20219;-70
2022/11/12 00:09:15;;;;;;;18.98;17.02;;;;;;;9.82;71.99;96249.28;5139164;27;20194;-70
2022/11/12 00:11:42;;;;;;;17.42;15.63;;;;;;;9.79;72.02;96244.38;5138813;27;20194;-71
2022/11/12 00:14:10;;;;;;;18.23;16.27;;;;;;;9.74;71.75;96239.84;5138669;27;20203;-71
2022/11/12 00:16:37;;;;;;;19.10;16.83;;;;;;;9.74;72.43;96239.03;5138706;27;20198;-71
2022/11/12 00:19:04;;;;;;;18.15;16.20;;;;;;;9.73;72.35;96232.72;5139029;27;20195;-71
2022/11/12 00:21:31;;;;;;;18.05;16.05;;;;;;;9.73;72.43;96237.38;5138744;27;20198;-71
2022/11/12 00:23:58;;;;;;;18.85;16.85;;;;;;;9.68;72.00;96241.13;5138481;27;20195;-71
2022/11/12 00:26:25;;;;;;;17.15;15.38;;;;;;;9.60;71.96;96237.19;5139337;27;20206;-71
2022/11/12 00:28:51;;;;;;;18.15;16.30;;;;;;;9.59;72.21;96238.34;5138037;27;20199;-71
2022/11/12 00:31:20;;;;;;;17.48;15.68;;;;;;;9.58;72.01;96255.16;5138334;27;20191;-71
2022/11/12 00:33:46;;;;;;;18.38;16.48;;;;;;;9.56;72.41;96263.75;5139308;27;20205;-71
2022/11/12 00:36:13;;;;;;;18.27;16.30;;;;;;;9.55;72.86;96253.88;5139391;27;20179;-71
2022/11/12 00:38:40;;;;;;;17.73;15.98;;;;;;;9.56;72.97;96260.19;5139211;27;20191;-71
2022/11/12 00:41:06;;;;;;;17.85;15.95;;;;;;;9.53;72.77;96252.56;5139083;27;20254;-71
2022/11/12 00:43:33;;;;;;;18.15;16.25;;;;;;;9.56;72.85;96260.19;5138783;27;20626;-71
2022/11/12 00:46:00;;;;;;;18.13;16.05;;;;;;;9.59;72.90;96254.06;5138147;27;20199;-71
2022/11/12 00:48:29;;;;;;;19.58;16.73;;;;;;;9.59;72.73;96251.31;5139060;27;20358;-70
2022/11/12 00:51:00;;;;;;;17.60;15.77;;;;;;;9.58;72.47;96255.16;5138857;27;20202;-70
2022/11/12 00:53:27;;;;;;;17.60;15.80;;;;;;;9.57;72.49;96242.53;5138859;27;20203;-71
2022/11/12 00:55:54;;;;;;;17.45;15.65;;;;;;;9.56;72.32;96240.91;5137982;27;20191;-71
2022/11/12 00:58:21;;;;;;;18.52;16.52;;;;;;;9.53;72.69;96239.59;5135675;27;20203;-70
2022/11/12 01:00:47;;;;;;;17.77;15.90;;;;;;;9.54;73.03;96237.66;5137740;27;20191;-70
2022/11/12 01:03:14;;;;;;;17.63;15.93;;;;;;;9.50;72.92;96234.72;5138337;27;20198;-70
2022/11/12 01:05:42;;;;;;;18.08;16.13;;;;;;;9.47;72.91;96216.06;5138153;27;20195;-71
2022/11/12 01:08:09;;;;;;;19.05;16.50;;;;;;;9.44;72.88;96222.25;5138539;27;20211;-70
2022/11/12 01:10:36;;;;;;;17.67;15.88;;;;;;;9.44;73.09;96237.94;5138195;27;20187;-71
2022/11/12 01:13:03;;;;;;;17.63;15.73;;;;;;;9.40;73.36;96235.00;5138142;27;20179;-71
2022/11/12 01:15:30;;;;;;;18.20;16.02;;;;;;;9.38;73.63;96229.81;5138403;27;20187;-70
2022/11/12 01:17:56;;;;;;;16.70;14.93;;;;;;;9.37;73.39;96235.66;5137586;27;20190;-71
2022/11/12 01:20:24;;;;;;;17.42;15.63;;;;;;;9.39;73.29;96228.69;5138356;27;20239;-71
2022/11/12 01:22:52;;;;;;;17.38;15.57;;;;;;;9.44;73.55;96226.91;5138324;27;20187;-71
2022/11/12 01:25:18;;;;;;;17.05;15.35;;;;;;;9.42;73.48;96224.50;5137294;27;20210;-71
2022/11/12 01:27:45;;;;;;;16.48;14.65;;;;;;;9.39;73.47;96222.38;5137606;27;20264;-71
2022/11/12 01:30:12;;;;;;;16.80;15.02;;;;;;;9.39;72.98;96225.13;5138289;27;20180;-71
2022/11/12 01:32:39;;;;;;;17.35;15.55;;;;;;;9.43;73.47;96225.28;5138203;27;20183;-71
2022/11/12 01:35:07;;;;;;;17.50;15.70;;;;;;;9.38;73.45;96216.03;5138319;27;20191;-70
2022/11/12 01:37:33;;;;;;;18.95;16.02;;;;;;;9.36;73.49;96220.25;5137691;27;20732;-71
2022/11/12 01:40:01;;;;;;;16.10;14.43;;;;;;;9.36;73.49;96221.03;5137987;27;20191;-71
2022/11/12 01:42:29;;;;;;;16.80;15.05;;;;;;;9.36;73.27;96210.03;5137549;27;20275;-71
2022/11/12 01:44:56;;;;;;;16.23;14.52;;;;;;;9.37;73.88;96208.94;5137562;27;20183;-70
2022/11/12 01:47:25;;;;;;;17.13;15.35;;;;;;;9.41;73.84;96206.34;5138156;27;20211;-71
2022/11/12 01:49:56;;;;;;;16.00;14.30;;;;;;;9.42;73.50;96210.72;5137472;27;20603;-71
2022/11/12 01:52:25;;;;;;;16.60;14.90;;;;;;;9.42;73.70;96207.97;5136569;27;20191;-71
2022/11/12 01:54:54;;;;;;;16.13;14.43;;;;;;;9.43;73.31;96206.81;5137262;27;20536;-71
2022/11/12 01:57:26;;;;;;;16.15;14.45;;;;;;;9.38;73.78;96209.72;5136301;27;20195;-70
2022/11/12 01:59:55;;;;;;;15.93;13.90;;;;;;;9.33;73.66;96201.59;5136606;27;20191;-70
2022/11/12 02:02:22;;;;;;;16.38;14.63;;;;;;;9.35;73.92;96199.34;5137664;27;20187;-71
2022/11/12 02:04:49;;;;;;;16.58;14.82;;;;;;;9.35;73.57;96199.34;5136294;27;20191;-71
2022/11/12 02:07:16;;;;;;;16.13;14.48;;;;;;;9.36;74.05;96204.53;5137371;27;20211;-71
2022/11/12 02:09:43;;;;;;;15.52;13.80;;;;;;;9.37;74.14;96208.94;5137071;27;20183;-71
2022/11/12 02:13:56;;;;;;;16.48;14.80;;;;;;;9.38;73.69;96206.97;5136218;27;20199;-71
2022/11/12 02:14:59;;;;;;;16.60;14.90;;;;;;;9.38;73.58;96207.78;5136826;27;20207;-71
2022/11/12 02:17:26;;;;;;;15.82;14.23;;;;;;;9.41;73.60;96211.84;5136362;27;20199;-70
2022/11/12 02:19:52;;;;;;;17.23;15.43;;;;;;;9.39;73.70;96211.34;5136406;27;20255;-70
2022/11/12 02:22:21;;;;;;;17.08;15.27;;;;;;;9.33;74.36;96216.19;5136337;27;20206;-70
2022/11/12 02:24:47;;;;;;;16.75;14.95;;;;;;;9.33;74.57;96209.84;5136121;27;20186;-71
2022/11/12 02:27:14;;;;;;;17.20;15.40;;;;;;;9.34;74.63;96217.00;5136220;27;20214;-70
2022/11/12 02:29:45;;;;;;;16.77;14.90;;;;;;;9.30;74.54;96211.31;5136325;27;20210;-70
2022/11/12 02:32:12;;;;;;;15.98;14.35;;;;;;;9.29;74.24;96217.13;5136062;27;20218;-71
2022/11/12 02:34:39;;;;;;;17.38;15.57;;;;;;;9.29;74.52;96208.88;5135921;27;20198;-71
2022/11/12 02:37:06;;;;;;;16.25;14.55;;;;;;;9.29;74.97;96212.44;5136366;27;20198;-71
2022/11/12 02:39:34;;;;;;;16.40;14.70;;;;;;;9.31;74.90;96201.13;5135804;27;20207;-70
2022/11/12 02:42:01;;;;;;;17.67;15.88;;;;;;;9.33;74.94;96207.09;5136006;27;20295;-71
2022/11/12 02:44:27;;;;;;;18.30;16.40;;;;;;;9.31;74.86;96199.19;5135794;27;20199;-70
2022/11/12 02:46:54;;;;;;;17.48;15.68;;;;;;;9.30;75.09;96197.56;5136344;27;20202;-71
2022/11/12 02:49:21;;;;;;;17.95;15.35;;;;;;;9.32;74.78;96197.22;5135469;27;20219;-71
2022/11/12 02:51:48;;;;;;;17.45;15.40;;;;;;;9.34;74.82;96209.56;5136145;27;20203;-70
2022/11/12 02:54:14;;;;;;;15.80;13.80;;;;;;;9.36;74.79;96203.72;5136545;27;20187;-71
2022/11/12 02:56:42;;;;;;;15.93;14.27;;;;;;;9.38;74.17;96204.22;5136498;27;20183;-71
2022/11/12 02:59:09;;;;;;;16.48;14.88;;;;;;;9.40;73.82;96208.28;5136032;27;20259;-71
2022/11/12 03:01:36;;;;;;;16.15;14.45;;;;;;;9.41;74.07;96203.59;5136567;27;20183;-70
2022/11/12 03:04:03;;;;;;;16.13;14.43;;;;;;;9.39;74.20;96195.63;5135915;27;20214;-70
2022/11/12 03:06:30;;;;;;;14.90;13.40;;;;;;;9.40;73.97;96200.03;5136565;27;20179;-70
2022/11/12 03:08:57;;;;;;;14.35;12.95;;;;;;;9.38;74.16;96195.97;5136372;27;20207;-70
2022/11/12 03:11:23;;;;;;;15.15;13.65;;;;;;;9.37;73.75;96199.84;5135984;27;20202;-71
2022/11/12 03:13:52;;;;;;;14.77;13.27;;;;;;;9.39;74.16;96201.16;5135760;27;20207;-71
2022/11/12 03:16:18;;;;;;;15.45;13.85;;;;;;;9.39;74.05;96200.34;5135991;27;20617;-72
2022/11/12 03:18:45;;;;;;;14.45;13.07;;;;;;;9.37;74.13;96199.84;5136377;27;20179;-71
2022/11/12 03:21:13;;;;;;;18.77;16.23;;;;;;;9.32;73.82;96205.50;5134588;27;20202;-71
2022/11/12 03:23:39;;;;;;;18.27;16.45;;;;;;;9.32;73.83;96205.50;5134906;28;20199;-71
2022/11/12 03:26:06;;;;;;;16.65;14.88;;;;;;;9.28;73.70;96210.81;5135478;28;20194;-71
2022/11/12 03:28:33;;;;;;;16.95;15.15;;;;;;;9.28;74.10;96207.25;5135251;28;20225;-71
2022/11/12 03:31:01;;;;;;;17.00;15.20;;;;;;;9.24;73.47;96204.31;5134782;28;20223;-71
2022/11/12 03:33:28;;;;;;;17.45;15.65;;;;;;;9.24;73.48;96204.31;5135198;28;20203;-71
2022/11/12 03:35:55;;;;;;;15.75;14.15;;;;;;;9.20;73.04;96206.09;5135489;28;20195;-71
2022/11/12 03:38:21;;;;;;;13.35;12.05;;;;;;;9.18;72.87;96205.56;5135002;28;20213;-71
2022/11/12 03:40:48;;;;;;;13.48;12.07;;;;;;;9.17;72.36;96209.47;5135869;27;20183;-71
2022/11/12 03:43:15;;;;;;;13.32;11.93;;;;;;;9.18;72.50;96213.03;5135749;28;20199;-71
2022/11/12 03:45:43;;;;;;;11.02;9.93;;;;;;;9.16;72.07;96205.91;5135143;28;20278;-72
2022/11/12 03:48:11;;;;;;;7.78;7.07;;;;;;;9.15;70.76;96209.78;5135902;27;20191;-71
2022/11/12 03:50:38;;;;;;;7.00;6.40;;;;;;;9.13;70.15;96198.28;5136097;28;20195;-73
2022/11/12 03:53:05;;;;;;;7.78;7.07;;;;;;;9.10;69.64;96201.66;5134860;28;20645;-70
2022/11/12 03:55:32;;;;;;;8.60;7.80;;;;;;;9.05;69.32;96201.81;5135900;28;20195;-71
2022/11/12 03:57:58;;;;;;;8.10;7.40;;;;;;;9.03;69.38;96203.25;5135971;28;20167;-70
2022/11/12 04:00:27;;;;;;;6.90;6.30;;;;;;;9.01;69.19;96203.56;5136237;27;20217;-70
2022/11/12 04:02:54;;;;;;;7.20;6.60;;;;;;;9.03;69.07;96208.75;5135383;28;20200;-70
2022/11/12 04:10:52;;;;;;;8.48;7.68;;;;;;;9.00;68.65;96198.34;5135547;28;20175;-70
2022/11/12 04:13:27;;;;;;;7.00;6.30;;;;;;;9.01;68.33;96194.50;5135842;28;20187;-70
2022/11/12 04:26:55;;;;;;;9.38;8.55;;;;;;;8.86;68.28;96207.53;5133431;28;20209;-71
2022/11/12 04:32:05;;;;;;;11.63;9.40;;;;;;;8.78;68.31;96185.44;5095641;27;20191;-71
2022/11/12 04:34:33;;;;;;;10.63;9.63;;;;;;;8.75;68.50;96186.06;5138376;27;20191;-71
2022/11/12 04:37:01;;;;;;;10.27;9.27;;;;;;;8.72;68.91;96195.78;5137932;27;20247;-71
2022/11/12 04:39:28;;;;;;;12.13;10.95;;;;;;;8.66;68.67;96189.59;5138343;27;20521;-71
2022/11/12 04:45:08;;;;;;;15.57;13.98;;;;;;;8.63;68.79;96197.66;5138385;27;20197;-71
2022/11/12 04:47:36;;;;;;;12.95;11.77;;;;;;;8.58;69.05;96187.59;5137833;27;20244;-71
2022/11/12 04:50:05;;;;;;;12.10;11.02;;;;;;;8.57;69.42;96188.72;5137829;27;20207;-71
2022/11/12 04:52:34;;;;;;;13.23;12.02;;;;;;;8.53;69.38;96192.38;5137669;27;20198;-70
2022/11/12 04:55:00;;;;;;;13.35;11.88;;;;;;;8.50;69.65;96198.53;5138154;27;20202;-71
2022/11/12 04:57:27;;;;;;;11.52;10.43;;;;;;;8.47;70.01;96196.41;5137714;27;20236;-70
2022/11/12 04:59:54;;;;;;;10.35;9.45;;;;;;;8.54;69.42;96196.78;5138243;27;20214;-71
2022/11/12 05:02:21;;;;;;;10.40;9.48;;;;;;;8.54;68.74;96205.84;5137357;27;20202;-70
2022/11/12 05:04:48;;;;;;;9.82;8.93;;;;;;;8.55;68.21;96207.47;5137574;27;20248;-70
2022/11/12 05:07:15;;;;;;;9.73;8.93;;;;;;;8.56;68.04;96200.03;5137500;27;20206;-71
2022/11/12 05:09:43;;;;;;;10.45;9.55;;;;;;;8.55;67.94;96201.16;5137927;27;20211;-70
2022/11/12 05:12:11;;;;;;;10.45;9.45;;;;;;;8.55;68.02;96204.72;5137641;27;20191;-71
2022/11/12 05:14:37;;;;;;;9.45;8.65;;;;;;;8.53;67.70;96211.63;5137578;27;20634;-71
2022/11/12 05:17:04;;;;;;;8.15;7.45;;;;;;;8.53;67.56;96215.19;5137214;27;20202;-70
2022/11/12 05:19:33;;;;;;;7.22;6.63;;;;;;;8.57;67.26;96216.22;5137898;27;20191;-70
2022/11/12 05:22:05;;;;;;;7.70;7.00;;;;;;;8.60;67.18;96218.31;5137786;27;20260;-71
2022/11/12 05:24:34;;;;;;;7.75;7.13;;;;;;;8.59;67.29;96226.91;5137518;27;20187;-71
2022/11/12 05:27:02;;;;;;;7.50;6.80;;;;;;;8.61;67.17;96228.22;5136972;27;20202;-71
2022/11/12 05:29:29;;;;;;;7.00;6.40;;;;;;;8.62;67.10;96221.59;5137257;27;20215;-71
2022/11/12 05:31:56;;;;;;;7.22;6.63;;;;;;;8.62;67.02;96226.28;5137185;27;20649;-71
2022/11/12 05:34:23;;;;;;;6.82;6.22;;;;;;;8.63;66.94;96233.41;5137215;27;20191;-71
2022/11/12 05:36:53;;;;;;;6.47;5.97;;;;;;;8.61;66.90;96230.97;5137301;27;20214;-71
2022/11/12 05:39:19;;;;;;;5.95;5.45;;;;;;;8.64;66.85;96222.09;5137380;27;20191;-71
2022/11/12 05:41:46;;;;;;;6.53;5.93;;;;;;;8.68;67.08;96228.59;5137491;27;20230;-71
2022/11/12 05:44:14;;;;;;;5.88;5.32;;;;;;;8.74;66.94;96229.28;5137507;27;20175;-70
2022/11/12 05:46:41;;;;;;;6.97;6.28;;;;;;;8.81;66.92;96239.84;5136969;27;20203;-71
2022/11/12 05:49:08;;;;;;;6.75;6.05;;;;;;;8.82;66.69;96233.22;5137623;27;20210;-70
2022/11/12 05:51:35;;;;;;;7.00;6.20;;;;;;;8.82;67.17;96238.72;5137826;27;20248;-70
2022/11/12 05:54:02;;;;;;;7.00;6.32;;;;;;;8.83;66.91;96235.66;5136672;27;20183;-70
2022/11/12 05:56:29;;;;;;;6.63;6.03;;;;;;;8.82;66.84;96233.22;5136855;27;20195;-70
2022/11/12 05:58:56;;;;;;;6.95;6.30;;;;;;;8.83;66.98;96240.34;5136638;27;20198;-70
2022/11/12 06:01:24;;;;;;;7.18;6.47;;;;;;;8.84;67.22;96245.53;5136827;27;20570;-71
2022/11/12 06:03:51;;;;;;;7.50;6.47;;;;;;;8.84;67.20;96239.22;5137586;27;20183;-71
2022/11/12 06:06:18;;;;;;;6.80;6.20;;;;;;;8.82;67.06;96249.72;5136536;27;20198;-70
2022/11/12 06:08:45;;;;;;;7.05;6.22;;;;;;;8.84;66.97;96248.28;5136408;27;20219;-71
2022/11/12 06:11:12;;;;;;;7.18;5.97;;;;;;;8.84;66.80;96248.28;5137463;27;20198;-71
2022/11/12 06:13:39;;;;;;;6.28;5.68;;;;;;;8.85;67.27;96243.59;5137011;27;20198;-70
2022/11/12 06:16:06;;;;;;;6.93;6.28;;;;;;;8.86;67.01;96246.03;5136442;27;20255;-71
2022/11/12 06:18:35;;;;;;;6.90;6.18;;;;;;;8.87;67.19;96246.84;5136284;27;20191;-71
2022/11/12 06:21:26;;;;;;;7.63;6.82;;;;;;;8.90;67.15;96254.47;5135919;27;20195;-70
2022/11/12 06:23:54;;;;;;;8.55;7.63;;;;;;;8.93;66.63;96245.56;5136163;27;20191;-71
2022/11/12 06:26:21;;;;;;;8.85;7.75;;;;;;;9.01;66.57;96255.03;5136197;27;20579;-70
2022/11/12 06:28:49;;;;;;;7.43;6.75;;;;;;;9.03;66.31;96247.28;5136195;27;20221;-71
2022/11/12 06:31:16;;;;;;;7.68;7.00;;;;;;;9.03;65.91;96256.34;5136167;27;20194;-71
2022/11/12 06:33:45;;;;;;;8.82;8.00;;;;;;;9.04;66.11;96241.47;5136817;27;20647;-71
2022/11/12 06:36:13;;;;;;;10.63;9.52;;;;;;;9.08;65.70;96250.72;5136052;27;20525;-71
2022/11/12 06:38:41;;;;;;;9.93;8.90;;;;;;;9.13;65.60;96239.56;5136070;27;20212;-70
2022/11/12 06:41:10;;;;;;;10.43;8.80;;;;;;;9.19;65.36;96244.91;5135473;27;20234;-70
2022/11/12 06:43:37;;;;;;;9.27;8.38;;;;;;;9.25;65.17;96249.97;5136072;27;20195;-70
2022/11/12 06:46:06;;;;;;;9.20;8.30;;;;;;;9.33;65.07;96256.66;5136920;27;20194;-70
2022/11/12 06:48:33;;;;;;;8.35;7.65;;;;;;;9.36;64.58;96254.09;5135804;27;20211;-71
2022/11/12 06:51:08;;;;;;;8.40;7.57;;;;;;;9.40;64.55;96266.13;5135646;27;20330;-71
2022/11/12 06:53:35;;;;;;;8.02;7.32;;;;;;;9.37;64.41;96257.69;5135680;27;20190;-71
2022/11/12 06:56:02;;;;;;;7.15;6.55;;;;;;;9.35;64.51;96259.94;5135449;27;20202;-71
2022/11/12 06:58:29;;;;;;;7.50;6.72;;;;;;;9.36;64.29;96262.34;5135765;27;20202;-71
2022/11/12 07:00:56;;;;;;;8.00;6.85;;;;;;;9.37;64.09;96264.00;5135685;27;20210;-71
2022/11/12 07:03:23;;;;;;;7.40;6.70;;;;;;;9.37;64.02;96257.69;5135897;27;20205;-71
2022/11/12 07:05:50;;;;;;;8.27;7.50;;;;;;;9.26;63.87;96264.56;5136063;27;20205;-70
2022/11/12 07:08:18;;;;;;;8.63;7.65;;;;;;;9.28;64.17;96256.81;5135204;27;20202;-70
2022/11/12 07:10:44;;;;;;;8.50;7.03;;;;;;;9.32;64.72;96247.59;5135561;27;20187;-71
2022/11/12 07:13:13;;;;;;;9.88;7.57;;;;;;;9.33;64.26;96256.66;5135457;27;20244;-71
2022/11/12 07:15:39;;;;;;;8.20;7.45;;;;;;;9.33;63.99;96254.75;5135475;27;20233;-71
2022/11/12 07:18:07;;;;;;;9.70;7.80;;;;;;;9.33;64.21;96249.25;5135599;27;20199;-71
2022/11/12 07:20:36;;;;;;;8.27;7.47;;;;;;;9.40;64.22;96254.28;5135400;28;20195;-71
2022/11/12 07:23:03;;;;;;;8.63;7.72;;;;;;;9.44;64.14;96246.19;5134910;28;20191;-70
2022/11/12 07:25:31;;;;;;;7.55;6.95;;;;;;;9.49;64.25;96246.88;5135077;28;20204;-71
2022/11/12 07:27:58;;;;;;;7.80;6.70;;;;;;;9.57;64.54;96248.84;5135753;28;20316;-71
2022/11/12 07:30:25;;;;;;;7.90;7.13;;;;;;;9.55;63.94;96255.78;5135047;28;20211;-70
2022/11/12 07:32:52;;;;;;;7.47;6.70;;;;;;;9.59;63.99;96249.34;5135177;28;20195;-70
2022/11/12 07:35:18;;;;;;;9.65;8.25;;;;;;;9.62;64.19;96254.22;5135837;28;20206;-71
2022/11/12 07:37:45;;;;;;;9.00;8.20;;;;;;;9.63;64.01;96261.34;5135095;28;20203;-71
2022/11/12 07:40:12;;;;;;;9.82;7.93;;;;;;;9.65;63.78;96247.25;5135716;28;20180;-71
2022/11/12 07:42:40;;;;;;;8.70;7.40;;;;;;;9.63;63.47;96255.84;5134685;28;20245;-71
2022/11/12 07:45:07;;;;;;;10.48;7.82;;;;;;;9.66;63.29;96254.41;5135143;28;20190;-71
2022/11/12 07:47:34;;;;;;;7.45;6.75;;;;;;;9.60;62.95;96245.47;5136071;28;20194;-71
2022/11/12 07:50:01;;;;;;;8.25;7.38;;;;;;;9.59;62.91;96248.53;5136130;28;20211;-71
2022/11/12 07:52:29;;;;;;;8.68;7.75;;;;;;;9.60;63.30;96244.66;5135664;27;20704;-71
2022/11/12 07:54:55;;;;;;;8.48;7.47;;;;;;;9.62;63.17;96254.22;5135858;28;20184;-70
2022/11/12 07:57:28;;;;;;;10.07;8.38;;;;;;;9.64;62.80;96249.19;5135203;28;20195;-70
2022/11/12 07:59:57;;;;;;;9.70;8.65;;;;;;;9.67;63.00;96247.75;5136530;28;20199;-70
2022/11/12 08:02:24;;;;;;;11.32;10.13;;;;;;;9.72;62.72;96257.81;5135130;28;20183;-71
2022/11/12 08:04:50;;;;;;;10.43;9.35;;;;;;;9.74;62.78;96259.13;5135834;27;20274;-71
2022/11/12 08:07:17;;;;;;;8.13;7.30;;;;;;;9.75;62.88;96258.00;5138389;27;20191;-70
2022/11/12 08:09:44;;;;;;;9.52;7.50;;;;;;;9.77;62.43;96258.50;5139821;27;20215;-71
2022/11/12 08:12:11;;;;;;;10.32;8.82;;;;;;;9.78;62.19;96262.06;5139404;27;20202;-71
2022/11/12 08:14:38;;;;;;;9.77;8.77;;;;;;;9.79;62.19;96261.72;5139629;27;20195;-71
2022/11/12 08:17:06;;;;;;;9.32;8.43;;;;;;;9.73;61.55;96259.44;5138626;27;20565;-70
2022/11/12 08:19:35;;;;;;;7.72;7.13;;;;;;;9.70;61.51;96271.91;5139676;27;20191;-70
2022/11/12 08:22:02;;;;;;;8.48;7.68;;;;;;;9.64;61.05;96268.47;5139490;27;20199;-69
2022/11/12 08:24:28;;;;;;;10.05;9.05;;;;;;;9.59;61.56;96263.13;5139599;27;20183;-70
2022/11/12 08:26:55;;;;;;;9.63;8.55;;;;;;;9.55;61.42;96264.91;5139349;27;20213;-70
2022/11/12 08:29:23;;;;;;;9.40;8.40;;;;;;;9.56;61.29;96265.69;5139030;27;20272;-70
2022/11/12 08:31:49;;;;;;;7.40;6.40;;;;;;;9.53;61.05;96269.09;5138543;27;20256;-70
2022/11/12 08:34:18;;;;;;;7.13;6.47;;;;;;;9.52;61.07;96270.22;5139048;27;20517;-70
2022/11/12 08:36:45;;;;;;;7.18;6.55;;;;;;;9.53;61.39;96269.09;5138951;27;20195;-70
2022/11/12 08:39:12;;;;;;;7.25;6.55;;;;;;;9.55;60.74;96264.91;5138183;27;20202;-70
2022/11/12 08:41:39;;;;;;;6.88;6.18;;;;;;;9.56;60.41;96268.47;5138172;27;20230;-69
2022/11/12 08:44:06;;;;;;;7.55;6.38;;;;;;;9.54;60.89;96266.00;5139105;27;20187;-69
2022/11/12 08:46:32;;;;;;;10.77;7.57;;;;;;;9.57;60.83;96268.13;5138798;27;20183;-69
2022/11/12 08:48:59;;;;;;;6.88;6.18;;;;;;;9.47;60.94;96271.16;5138849;27;20216;-69
2022/11/12 08:51:27;;;;;;;8.73;7.93;;;;;;;9.56;61.19;96265.69;5138975;27;20183;-69
2022/11/12 08:53:55;;;;;;;7.57;6.78;;;;;;;9.60;61.07;96274.94;5138437;27;20213;-69
2022/11/12 08:56:22;;;;;;;9.40;8.20;;;;;;;9.50;60.31;96275.22;5138045;27;20203;-69
2022/11/12 08:58:48;;;;;;;8.30;7.40;;;;;;;9.49;60.94;96276.38;5138644;27;20195;-69
2022/11/12 09:01:15;;;;;;;10.45;9.43;;;;;;;9.47;60.51;96273.91;5137926;27;20629;-70
2022/11/12 09:03:42;;;;;;;8.25;7.45;;;;;;;9.42;60.32;96270.50;5137985;27;20210;-69
2022/11/12 09:06:09;;;;;;;6.32;5.43;;;;;;;9.37;60.51;96266.75;5138108;27;20267;-69
2022/11/12 09:08:38;;;;;;;5.90;5.20;;;;;;;9.38;59.97;96267.56;5137678;27;20195;-70
2022/11/12 09:11:05;;;;;;;5.18;4.50;;;;;;;9.39;60.17;96264.47;5138423;27;20199;-69
2022/11/12 09:13:32;;;;;;;4.90;4.30;;;;;;;9.51;60.56;96260.31;5138290;27;20202;-69
2022/11/12 09:16:03;;;;;;;5.75;4.88;;;;;;;9.52;60.14;96271.03;5138454;27;20198;-70
2022/11/12 09:18:33;;;;;;;6.53;5.93;;;;;;;9.50;60.15;96262.25;5137197;27;20184;-70
2022/11/12 09:21:01;;;;;;;6.90;6.20;;;;;;;9.51;60.33;96261.13;5137429;27;20203;-70
2022/11/12 09:23:28;;;;;;;5.68;5.18;;;;;;;9.43;60.19;96261.91;5138114;27;20212;-69
2022/11/12 09:25:57;;;;;;;7.30;5.90;;;;;;;9.47;60.31;96260.13;5137489;27;20617;-69
2022/11/12 09:28:24;;;;;;;5.50;5.05;;;;;;;9.48;59.82;96259.03;5137610;27;20186;-69
2022/11/12 09:30:52;;;;;;;5.78;5.15;;;;;;;9.58;60.28;96263.44;5137174;27;20211;-69
2022/11/12 09:33:20;;;;;;;5.63;4.93;;;;;;;9.69;59.66;96264.75;5138290;27;20194;-69
2022/11/12 09:35:47;;;;;;;4.82;4.25;;;;;;;9.76;59.29;96265.13;5138309;27;20183;-70
2022/11/12 09:38:15;;;;;;;5.20;4.70;;;;;;;9.80;59.32;96262.53;5138130;27;20184;-70
2022/11/12 09:41:01;;;;;;;6.25;5.57;;;;;;;9.83;59.00;96270.16;5137705;27;20198;-70
2022/11/12 09:43:31;;;;;;;6.47;4.80;;;;;;;9.81;58.31;96270.50;5137027;27;20190;-70
2022/11/12 09:46:03;;;;;;;6.75;6.15;;;;;;;9.79;59.10;96260.94;5137458;27;20194;-70
2022/11/12 09:48:34;;;;;;;6.25;4.63;;;;;;;9.79;57.91;96264.50;5137840;27;20183;-69
2022/11/12 09:51:05;;;;;;;6.78;4.70;;;;;;;9.74;58.14;96266.59;5137737;27;20207;-70
2022/11/12 09:53:35;;;;;;;4.50;4.10;;;;;;;9.62;57.70;96276.28;5137963;27;20191;-70
2022/11/12 09:56:07;;;;;;;4.13;3.72;;;;;;;9.67;57.81;96267.03;5137798;27;20179;-70
2022/11/12 09:58:34;;;;;;;3.30;3.00;;;;;;;9.53;56.33;96266.34;5136689;27;20214;-70
2022/11/12 10:01:04;;;;;;;3.92;3.63;;;;;;;9.51;56.85;96263.88;5137947;27;20199;-69
2022/11/12 10:03:38;;;;;;;5.50;5.00;;;;;;;9.60;57.54;96252.91;5137709;27;20191;-70
2022/11/12 10:06:09;;;;;;;5.00;4.60;;;;;;;9.70;57.49;96263.66;5136585;27;20199;-70
2022/11/12 10:08:41;;;;;;;4.63;3.53;;;;;;;9.79;56.83;96258.97;5137504;27;20198;-70
2022/11/12 10:12:30;;;;;;;4.53;4.13;;;;;;;9.85;56.56;96256.91;5137330;27;20207;-70
2022/11/12 10:14:37;;;;;;;5.63;4.18;;;;;;;9.89;56.31;96266.16;5136862;27;20630;-70
2022/11/12 10:17:07;;;;;;;6.20;4.38;;;;;;;9.85;56.35;96259.66;5136405;27;20194;-69
2022/11/12 10:20:01;;;;;;;3.95;3.65;;;;;;;9.74;56.66;96263.84;5136979;27;20191;-69
2022/11/12 10:22:41;;;;;;;3.80;3.50;;;;;;;9.76;56.36;96261.56;5137021;27;20198;-70
2022/11/12 10:25:14;;;;;;;3.50;3.20;;;;;;;9.80;56.80;96263.38;5137032;27;20198;-70
2022/11/12 10:27:43;;;;;;;3.47;3.17;;;;;;;9.81;56.44;96258.69;5136302;27;20194;-69
2022/11/12 10:30:15;;;;;;;4.18;3.25;;;;;;;9.83;57.16;96259.97;5135704;27;20223;-69
2022/11/12 10:32:44;;;;;;;7.50;5.28;;;;;;;9.88;57.81;96264.53;5137046;27;20183;-70
2022/11/12 10:35:12;;;;;;;4.40;4.00;;;;;;;9.77;59.61;96260.44;5136679;27;20280;-70
2022/11/12 10:37:43;;;;;;;5.03;4.53;;;;;;;9.78;60.25;96265.63;5137083;27;20186;-69
2022/11/12 10:40:27;;;;;;;5.00;4.50;;;;;;;9.65;60.30;96258.28;5136157;27;20226;-70
2022/11/12 10:43:07;;;;;;;5.40;4.70;;;;;;;9.68;60.77;96259.59;5135384;27;20240;-69
2022/11/12 10:45:34;;;;;;;5.47;4.97;;;;;;;9.59;61.18;96260.38;5136445;27;20202;-69
2022/11/12 10:48:01;;;;;;;7.03;6.32;;;;;;;9.59;61.66;96262.31;5136874;27;20171;-69
2022/11/12 10:50:30;;;;;;;7.80;7.10;;;;;;;9.52;61.93;96264.72;5136346;27;20207;-70
2022/11/12 10:53:00;;;;;;;9.82;8.82;;;;;;;9.51;62.52;96260.31;5136617;27;20183;-69
2022/11/12 10:55:28;;;;;;;9.82;8.90;;;;;;;9.45;63.02;96262.41;5136214;27;20210;-69
2022/11/12 10:58:18;;;;;;;10.32;9.15;;;;;;;9.45;63.38;96258.84;5136513;27;20187;-70
2022/11/12 11:01:00;;;;;;;9.60;8.70;;;;;;;9.42;63.97;96264.97;5135846;27;20206;-69
2022/11/12 11:03:28;;;;;;;10.48;9.57;;;;;;;9.42;64.29;96268.53;5135491;27;20557;-69
2022/11/12 11:05:58;;;;;;;8.70;7.93;;;;;;;9.45;63.81;96269.88;5136557;27;20179;-70
2022/11/12 11:08:36;;;;;;;7.95;7.25;;;;;;;9.45;63.54;96267.91;5135776;27;20187;-69
2022/11/12 11:11:22;;;;;;;6.93;6.32;;;;;;;9.53;63.73;96272.66;5136366;27;20214;-69
2022/11/12 11:13:51;;;;;;;5.63;5.10;;;;;;;9.48;63.14;96259.03;5135719;27;20191;-69
2022/11/12 11:16:20;;;;;;;5.68;5.10;;;;;;;9.52;63.46;96262.78;5135374;27;20560;-69
2022/11/12 11:18:51;;;;;;;6.50;5.15;;;;;;;9.53;63.63;96260.81;5136442;27;20194;-69
2022/11/12 11:21:42;;;;;;;6.15;5.20;;;;;;;9.55;63.26;96264.06;5135412;27;20197;-69
2022/11/12 11:24:25;;;;;;;7.45;5.85;;;;;;;9.57;63.13;96253.53;5136219;28;20183;-69
2022/11/12 11:26:58;;;;;;;5.45;4.95;;;;;;;9.58;62.23;96250.47;5135909;28;20179;-69
2022/11/12 11:29:39;;;;;;;5.95;5.35;;;;;;;9.69;62.39;96255.69;5136691;28;20198;-69
2022/11/12 11:32:16;;;;;;;6.60;5.80;;;;;;;9.75;62.08;96259.94;5136182;28;20183;-69
2022/11/12 11:34:50;;;;;;;6.55;5.70;;;;;;;9.80;61.40;96263.38;5135336;28;20183;-69
2022/11/12 11:37:25;;;;;;;5.35;4.82;;;;;;;9.83;61.31;96262.72;5136279;28;20178;-69
2022/11/12 11:40:00;;;;;;;3.95;3.63;;;;;;;9.85;60.63;96260.47;5136167;28;20567;-69
2022/11/12 11:42:45;;;;;;;4.68;4.10;;;;;;;9.86;60.47;96259.31;5138329;27;20230;-70
2022/11/12 11:45:16;;;;;;;5.43;4.30;;;;;;;9.92;60.49;96256.44;5140228;27;20194;-69
2022/11/12 11:47:46;;;;;;;5.43;4.22;;;;;;;9.93;60.32;96260.81;5140249;27;20221;-70
2022/11/12 11:50:26;;;;;;;3.67;3.38;;;;;;;9.90;60.51;96265.00;5139242;27;20211;-69
2022/11/12 11:53:10;;;;;;;4.28;3.90;;;;;;;9.93;60.45;96261.63;5140164;27;20215;-69
2022/11/12 11:55:48;;;;;;;7.20;4.82;;;;;;;9.97;60.52;96267.31;5139973;27;20195;-69
2022/11/12 11:58:46;;;;;;;6.97;6.28;;;;;;;9.84;61.66;96272.63;5139605;27;20206;-69
2022/11/12 12:01:19;;;;;;;5.90;5.35;;;;;;;9.75;62.05;96271.78;5139240;27;20198;-69
2022/11/12 12:04:00;;;;;;;6.65;6.05;;;;;;;9.73;62.71;96267.69;5139447;27;20187;-70
2022/11/12 12:06:28;;;;;;;6.95;6.25;;;;;;;9.80;62.49;96268.06;5139330;27;20195;-69
2022/11/12 12:09:05;;;;;;;7.45;6.45;;;;;;;9.77;62.99;96265.97;5139545;27;20626;-69